sensor_id;sensor_type;location;lat;lon;timestamp;P1;durP1;ratioP1;P2;durP2;ratioP2
22060;SDS011;11194;48.092;-1.382;2023-04-24T00:00:30;5.97;;;3.33;;
22060;SDS011;11194;48.092;-1.382;2023-04-24T00:02:56;6.95;;;3.28;;
22060;SDS011;11194;48.092;-1.382;2023-04-24T00:05:23;6.72;;;3.60;;
22060;SDS011;11194;48.092;-1.382;2023-04-24T00:07:49;5.07;;;3.13;;
22060;SDS011;11194;48.092;-1.382;2023-04-24T00:10:17;6.75;;;3.55;;
22060;SDS011;11194;48.092;-1.382;2023-04-24T00:12:44;4.25;;;3.15;;
22060;SDS011;11194;48.092;-1.382;2023-04-24T00:15:10;8.05;;;3.30;;
22060;SDS011;11194;48.092;-1.382;2023-04-24T00:17:36;5.78;;;3.13;;
22060;SDS011;11194;48.092;-1.382;2023-04-24T00:20:03;6.93;;;3.03;;
22060;SDS011;11194;48.092;-1.382;2023-04-24T00:22:29;5.70;;;3.13;;
22060;SDS011;11194;48.092;-1.382;2023-04-24T00:24:56;4.70;;;3.13;;
22060;SDS011;11194;48.092;-1.382;2023-04-24T00:27:23;7.75;;;3.40;;
22060;SDS011;11194;48.092;-1.382;2023-04-24T00:29:49;6.35;;;3.83;;
22060;SDS011;11194;48.092;-1.382;2023-04-24T00:32:15;4.72;;;3.55;;
22060;SDS011;11194;48.092;-1.382;2023-04-24T00:34:42;6.57;;;3.63;;
22060;SDS011;11194;48.092;-1.382;2023-04-24T00:37:08;7.90;;;3.42;;
22060;SDS011;11194;48.092;-1.382;2023-04-24T00:39:34;8.05;;;3.35;;
22060;SDS011;11194;48.092;-1.382;2023-04-24T00:42:00;7.00;;;3.63;;
22060;SDS011;11194;48.092;-1.382;2023-04-24T00:44:27;5.57;;;3.58;;
22060;SDS011;11194;48.092;-1.382;2023-04-24T00:46:53;6.50;;;3.78;;
22060;SDS011;11194;48.092;-1.382;2023-04-24T00:49:23;7.45;;;4.35;;
22060;SDS011;11194;48.092;-1.382;2023-04-24T00:51:49;9.70;;;4.75;;
22060;SDS011;11194;48.092;-1.382;2023-04-24T00:54:16;5.90;;;4.13;;
22060;SDS011;11194;48.092;-1.382;2023-04-24T00:56:42;8.57;;;4.68;;
22060;SDS011;11194;48.092;-1.382;2023-04-24T00:59:09;6.82;;;4.82;;
22060;SDS011;11194;48.092;-1.382;2023-04-24T01:01:36;11.75;;;5.30;;
22060;SDS011;11194;48.092;-1.382;2023-04-24T01:04:02;7.55;;;4.78;;
22060;SDS011;11194;48.092;-1.382;2023-04-24T01:06:28;8.13;;;5.18;;
22060;SDS011;11194;48.092;-1.382;2023-04-24T01:08:56;5.95;;;4.45;;
22060;SDS011;11194;48.092;-1.382;2023-04-24T01:11:22;7.90;;;5.28;;
22060;SDS011;11194;48.092;-1.382;2023-04-24T01:13:48;7.55;;;5.47;;
22060;SDS011;11194;48.092;-1.382;2023-04-24T01:16:14;7.55;;;5.25;;
22060;SDS011;11194;48.092;-1.382;2023-04-24T01:18:42;7.75;;;5.10;;
22060;SDS011;11194;48.092;-1.382;2023-04-24T01:21:08;9.88;;;5.55;;
22060;SDS011;11194;48.092;-1.382;2023-04-24T01:23:35;7.78;;;5.10;;
22060;SDS011;11194;48.092;-1.382;2023-04-24T01:26:01;7.90;;;4.55;;
22060;SDS011;11194;48.092;-1.382;2023-04-24T01:28:27;11.32;;;5.18;;
22060;SDS011;11194;48.092;-1.382;2023-04-24T04:03:13;7.30;;;4.63;;
22060;SDS011;11194;48.092;-1.382;2023-04-24T04:05:39;9.15;;;5.00;;
22060;SDS011;11194;48.092;-1.382;2023-04-24T04:08:05;9.23;;;4.80;;
22060;SDS011;11194;48.092;-1.382;2023-04-24T04:10:31;10.77;;;5.22;;
22060;SDS011;11194;48.092;-1.382;2023-04-24T04:12:57;11.32;;;5.30;;
22060;SDS011;11194;48.092;-1.382;2023-04-24T04:15:23;9.75;;;4.60;;
22060;SDS011;11194;48.092;-1.382;2023-04-24T04:17:49;10.15;;;4.88;;
22060;SDS011;11194;48.092;-1.382;2023-04-24T04:20:15;6.72;;;4.78;;
22060;SDS011;11194;48.092;-1.382;2023-04-24T04:22:41;6.32;;;4.47;;
22060;SDS011;11194;48.092;-1.382;2023-04-24T04:25:07;10.85;;;5.13;;
22060;SDS011;11194;48.092;-1.382;2023-04-24T04:27:34;9.85;;;5.18;;
22060;SDS011;11194;48.092;-1.382;2023-04-24T04:30:03;10.00;;;5.07;;
22060;SDS011;11194;48.092;-1.382;2023-04-24T04:32:32;7.97;;;4.50;;
22060;SDS011;11194;48.092;-1.382;2023-04-24T04:34:59;10.77;;;4.78;;
22060;SDS011;11194;48.092;-1.382;2023-04-24T04:37:37;6.68;;;4.45;;
22060;SDS011;11194;48.092;-1.382;2023-04-24T04:40:03;9.75;;;4.32;;
22060;SDS011;11194;48.092;-1.382;2023-04-24T04:42:31;7.43;;;4.70;;
22060;SDS011;11194;48.092;-1.382;2023-04-24T04:44:59;7.63;;;4.53;;
22060;SDS011;11194;48.092;-1.382;2023-04-24T04:47:25;6.68;;;4.65;;
22060;SDS011;11194;48.092;-1.382;2023-04-24T04:49:51;7.82;;;4.75;;
22060;SDS011;11194;48.092;-1.382;2023-04-24T04:52:18;9.63;;;4.57;;
22060;SDS011;11194;48.092;-1.382;2023-04-24T04:54:44;7.63;;;4.68;;
22060;SDS011;11194;48.092;-1.382;2023-04-24T04:57:11;12.82;;;4.95;;
22060;SDS011;11194;48.092;-1.382;2023-04-24T04:59:37;9.68;;;4.80;;
22060;SDS011;11194;48.092;-1.382;2023-04-24T05:02:03;6.53;;;4.55;;
22060;SDS011;11194;48.092;-1.382;2023-04-24T05:04:30;8.13;;;4.63;;
22060;SDS011;11194;48.092;-1.382;2023-04-24T05:06:56;6.63;;;4.25;;
22060;SDS011;11194;48.092;-1.382;2023-04-24T05:09:22;7.53;;;4.22;;
22060;SDS011;11194;48.092;-1.382;2023-04-24T05:11:52;8.30;;;4.45;;
22060;SDS011;11194;48.092;-1.382;2023-04-24T05:14:18;9.88;;;4.80;;
22060;SDS011;11194;48.092;-1.382;2023-04-24T05:16:44;8.57;;;4.57;;
22060;SDS011;11194;48.092;-1.382;2023-04-24T05:19:10;7.28;;;4.35;;
22060;SDS011;11194;48.092;-1.382;2023-04-24T05:21:38;8.90;;;4.70;;
22060;SDS011;11194;48.092;-1.382;2023-04-24T05:24:05;5.88;;;3.95;;
22060;SDS011;11194;48.092;-1.382;2023-04-24T05:26:31;8.50;;;5.00;;
22060;SDS011;11194;48.092;-1.382;2023-04-24T05:28:57;9.20;;;4.82;;
22060;SDS011;11194;48.092;-1.382;2023-04-24T05:31:23;9.45;;;5.03;;
22060;SDS011;11194;48.092;-1.382;2023-04-24T05:33:50;5.57;;;4.25;;
22060;SDS011;11194;48.092;-1.382;2023-04-24T05:36:16;9.25;;;3.90;;
22060;SDS011;11194;48.092;-1.382;2023-04-24T05:38:42;8.05;;;3.95;;
22060;SDS011;11194;48.092;-1.382;2023-04-24T05:41:08;5.60;;;4.35;;
22060;SDS011;11194;48.092;-1.382;2023-04-24T05:43:34;10.10;;;5.03;;
22060;SDS011;11194;48.092;-1.382;2023-04-24T05:46:00;10.43;;;4.95;;
22060;SDS011;11194;48.092;-1.382;2023-04-24T05:48:26;10.18;;;4.78;;
22060;SDS011;11194;48.092;-1.382;2023-04-24T05:50:52;7.78;;;4.40;;
22060;SDS011;11194;48.092;-1.382;2023-04-24T05:53:18;6.80;;;4.60;;
22060;SDS011;11194;48.092;-1.382;2023-04-24T05:55:44;10.25;;;4.53;;
22060;SDS011;11194;48.092;-1.382;2023-04-24T05:58:11;8.38;;;4.20;;
22060;SDS011;11194;48.092;-1.382;2023-04-24T06:00:37;8.07;;;4.53;;
22060;SDS011;11194;48.092;-1.382;2023-04-24T06:03:07;7.57;;;4.50;;
22060;SDS011;11194;48.092;-1.382;2023-04-24T06:05:33;9.40;;;4.65;;
22060;SDS011;11194;48.092;-1.382;2023-04-24T06:07:59;7.05;;;4.20;;
22060;SDS011;11194;48.092;-1.382;2023-04-24T06:10:25;9.25;;;4.30;;
22060;SDS011;11194;48.092;-1.382;2023-04-24T06:12:52;10.07;;;4.80;;
22060;SDS011;11194;48.092;-1.382;2023-04-24T06:15:21;12.45;;;4.70;;
22060;SDS011;11194;48.092;-1.382;2023-04-24T06:17:47;7.57;;;4.13;;
22060;SDS011;11194;48.092;-1.382;2023-04-24T06:20:13;9.77;;;4.45;;
22060;SDS011;11194;48.092;-1.382;2023-04-24T06:22:39;9.48;;;5.13;;
22060;SDS011;11194;48.092;-1.382;2023-04-24T06:25:05;7.85;;;4.00;;
22060;SDS011;11194;48.092;-1.382;2023-04-24T06:27:32;8.95;;;4.43;;
22060;SDS011;11194;48.092;-1.382;2023-04-24T06:29:58;8.50;;;4.88;;
22060;SDS011;11194;48.092;-1.382;2023-04-24T06:32:24;7.30;;;4.60;;
22060;SDS011;11194;48.092;-1.382;2023-04-24T06:34:51;7.68;;;5.03;;
22060;SDS011;11194;48.092;-1.382;2023-04-24T06:37:18;8.32;;;4.82;;
22060;SDS011;11194;48.092;-1.382;2023-04-24T06:39:44;11.02;;;5.43;;
22060;SDS011;11194;48.092;-1.382;2023-04-24T06:42:10;8.68;;;4.80;;
22060;SDS011;11194;48.092;-1.382;2023-04-24T06:44:36;8.20;;;5.22;;
22060;SDS011;11194;48.092;-1.382;2023-04-24T06:47:06;10.32;;;5.22;;
22060;SDS011;11194;48.092;-1.382;2023-04-24T06:49:33;6.55;;;4.45;;
22060;SDS011;11194;48.092;-1.382;2023-04-24T06:51:59;7.93;;;4.90;;
22060;SDS011;11194;48.092;-1.382;2023-04-24T06:54:25;11.80;;;5.35;;
22060;SDS011;11194;48.092;-1.382;2023-04-24T06:56:51;6.63;;;4.15;;
22060;SDS011;11194;48.092;-1.382;2023-04-24T06:59:18;8.80;;;4.53;;
22060;SDS011;11194;48.092;-1.382;2023-04-24T07:01:44;7.00;;;3.67;;
22060;SDS011;11194;48.092;-1.382;2023-04-24T07:04:10;8.27;;;3.90;;
22060;SDS011;11194;48.092;-1.382;2023-04-24T07:06:38;7.65;;;3.60;;
22060;SDS011;11194;48.092;-1.382;2023-04-24T07:09:04;7.47;;;3.47;;
22060;SDS011;11194;48.092;-1.382;2023-04-24T07:11:30;5.63;;;3.05;;
22060;SDS011;11194;48.092;-1.382;2023-04-24T07:13:56;6.50;;;3.30;;
22060;SDS011;11194;48.092;-1.382;2023-04-24T07:16:22;5.18;;;3.40;;
22060;SDS011;11194;48.092;-1.382;2023-04-24T07:18:48;4.75;;;3.22;;
22060;SDS011;11194;48.092;-1.382;2023-04-24T07:21:14;6.20;;;3.15;;
22060;SDS011;11194;48.092;-1.382;2023-04-24T07:23:40;7.47;;;3.10;;
22060;SDS011;11194;48.092;-1.382;2023-04-24T07:26:07;5.40;;;3.65;;
22060;SDS011;11194;48.092;-1.382;2023-04-24T07:28:33;6.63;;;3.53;;
22060;SDS011;11194;48.092;-1.382;2023-04-24T07:30:59;5.80;;;3.22;;
22060;SDS011;11194;48.092;-1.382;2023-04-24T07:33:25;5.32;;;3.42;;
22060;SDS011;11194;48.092;-1.382;2023-04-24T07:35:52;4.10;;;3.03;;
22060;SDS011;11194;48.092;-1.382;2023-04-24T07:38:18;5.63;;;3.38;;
22060;SDS011;11194;48.092;-1.382;2023-04-24T07:40:47;5.75;;;4.22;;
22060;SDS011;11194;48.092;-1.382;2023-04-24T07:43:13;5.60;;;3.55;;
22060;SDS011;11194;48.092;-1.382;2023-04-24T07:45:39;6.95;;;3.55;;
22060;SDS011;11194;48.092;-1.382;2023-04-24T07:48:05;4.55;;;3.78;;
22060;SDS011;11194;48.092;-1.382;2023-04-24T07:50:31;4.50;;;3.42;;
22060;SDS011;11194;48.092;-1.382;2023-04-24T07:52:57;5.28;;;3.83;;
22060;SDS011;11194;48.092;-1.382;2023-04-24T07:55:23;5.50;;;3.20;;
22060;SDS011;11194;48.092;-1.382;2023-04-24T07:57:49;4.18;;;3.20;;
22060;SDS011;11194;48.092;-1.382;2023-04-24T08:00:15;3.83;;;2.90;;
22060;SDS011;11194;48.092;-1.382;2023-04-24T08:02:41;5.45;;;3.15;;
22060;SDS011;11194;48.092;-1.382;2023-04-24T08:05:07;4.43;;;3.05;;
22060;SDS011;11194;48.092;-1.382;2023-04-24T08:07:34;4.30;;;2.83;;
22060;SDS011;11194;48.092;-1.382;2023-04-24T08:10:00;5.47;;;2.50;;
22060;SDS011;11194;48.092;-1.382;2023-04-24T08:12:28;3.72;;;2.75;;
22060;SDS011;11194;48.092;-1.382;2023-04-24T08:14:54;5.72;;;2.85;;
22060;SDS011;11194;48.092;-1.382;2023-04-24T08:17:20;4.40;;;2.33;;
22060;SDS011;11194;48.092;-1.382;2023-04-24T08:19:46;5.85;;;2.97;;
22060;SDS011;11194;48.092;-1.382;2023-04-24T08:22:16;3.75;;;2.83;;
22060;SDS011;11194;48.092;-1.382;2023-04-24T08:24:42;3.15;;;2.70;;
22060;SDS011;11194;48.092;-1.382;2023-04-24T08:27:09;3.88;;;3.13;;
22060;SDS011;11194;48.092;-1.382;2023-04-24T08:29:35;4.57;;;2.90;;
22060;SDS011;11194;48.092;-1.382;2023-04-24T08:32:02;5.25;;;2.90;;
22060;SDS011;11194;48.092;-1.382;2023-04-24T08:34:28;6.13;;;3.40;;
22060;SDS011;11194;48.092;-1.382;2023-04-24T08:36:54;8.02;;;3.25;;
22060;SDS011;11194;48.092;-1.382;2023-04-24T08:39:20;5.20;;;3.70;;
22060;SDS011;11194;48.092;-1.382;2023-04-24T08:41:46;5.97;;;3.45;;
22060;SDS011;11194;48.092;-1.382;2023-04-24T08:44:14;6.25;;;3.85;;
22060;SDS011;11194;48.092;-1.382;2023-04-24T08:46:42;6.90;;;4.03;;
22060;SDS011;11194;48.092;-1.382;2023-04-24T08:49:09;7.20;;;4.07;;
22060;SDS011;11194;48.092;-1.382;2023-04-24T08:51:36;6.45;;;3.50;;
22060;SDS011;11194;48.092;-1.382;2023-04-24T08:54:02;5.32;;;2.95;;
22060;SDS011;11194;48.092;-1.382;2023-04-24T08:56:29;4.78;;;2.85;;
22060;SDS011;11194;48.092;-1.382;2023-04-24T08:58:56;7.25;;;3.33;;
22060;SDS011;11194;48.092;-1.382;2023-04-24T09:01:22;5.50;;;3.63;;
22060;SDS011;11194;48.092;-1.382;2023-04-24T09:03:49;5.38;;;3.13;;
22060;SDS011;11194;48.092;-1.382;2023-04-24T09:06:17;3.90;;;2.88;;
22060;SDS011;11194;48.092;-1.382;2023-04-24T09:08:43;5.35;;;3.20;;
22060;SDS011;11194;48.092;-1.382;2023-04-24T09:11:11;7.85;;;3.35;;
22060;SDS011;11194;48.092;-1.382;2023-04-24T09:13:37;6.97;;;3.47;;
22060;SDS011;11194;48.092;-1.382;2023-04-24T09:16:03;4.65;;;2.92;;
22060;SDS011;11194;48.092;-1.382;2023-04-24T09:18:29;5.10;;;3.33;;
22060;SDS011;11194;48.092;-1.382;2023-04-24T09:21:08;6.05;;;3.47;;
22060;SDS011;11194;48.092;-1.382;2023-04-24T09:23:34;5.93;;;3.10;;
22060;SDS011;11194;48.092;-1.382;2023-04-24T09:26:01;4.00;;;3.33;;
22060;SDS011;11194;48.092;-1.382;2023-04-24T09:28:31;7.10;;;3.80;;
22060;SDS011;11194;48.092;-1.382;2023-04-24T09:33:33;5.32;;;3.00;;
22060;SDS011;11194;48.092;-1.382;2023-04-24T09:35:59;4.32;;;2.90;;
22060;SDS011;11194;48.092;-1.382;2023-04-24T09:38:38;5.90;;;3.20;;
22060;SDS011;11194;48.092;-1.382;2023-04-24T09:41:04;4.15;;;2.92;;
22060;SDS011;11194;48.092;-1.382;2023-04-24T09:43:31;3.90;;;2.90;;
22060;SDS011;11194;48.092;-1.382;2023-04-24T09:45:58;5.03;;;3.17;;
22060;SDS011;11194;48.092;-1.382;2023-04-24T09:48:31;4.43;;;2.97;;
22060;SDS011;11194;48.092;-1.382;2023-04-24T09:50:57;5.35;;;3.30;;
22060;SDS011;11194;48.092;-1.382;2023-04-24T09:53:24;4.50;;;2.70;;
22060;SDS011;11194;48.092;-1.382;2023-04-24T09:55:51;5.43;;;3.45;;
22060;SDS011;11194;48.092;-1.382;2023-04-24T09:58:18;6.07;;;3.20;;
22060;SDS011;11194;48.092;-1.382;2023-04-24T10:00:44;5.43;;;3.00;;
22060;SDS011;11194;48.092;-1.382;2023-04-24T10:03:11;6.85;;;2.90;;
22060;SDS011;11194;48.092;-1.382;2023-04-24T10:05:37;6.03;;;2.95;;
22060;SDS011;11194;48.092;-1.382;2023-04-24T10:08:10;6.18;;;3.05;;
22060;SDS011;11194;48.092;-1.382;2023-04-24T10:10:40;4.75;;;3.42;;
22060;SDS011;11194;48.092;-1.382;2023-04-24T10:13:06;6.35;;;3.42;;
22060;SDS011;11194;48.092;-1.382;2023-04-24T10:15:33;4.57;;;3.22;;
22060;SDS011;11194;48.092;-1.382;2023-04-24T10:18:00;5.47;;;3.55;;
22060;SDS011;11194;48.092;-1.382;2023-04-24T10:20:28;3.58;;;2.70;;
22060;SDS011;11194;48.092;-1.382;2023-04-24T10:22:57;7.72;;;3.42;;
22060;SDS011;11194;48.092;-1.382;2023-04-24T10:25:24;7.70;;;3.55;;
22060;SDS011;11194;48.092;-1.382;2023-04-24T10:27:51;6.07;;;3.25;;
22060;SDS011;11194;48.092;-1.382;2023-04-24T10:30:18;5.93;;;2.78;;
22060;SDS011;11194;48.092;-1.382;2023-04-24T10:32:44;5.82;;;2.90;;
22060;SDS011;11194;48.092;-1.382;2023-04-24T10:35:14;5.28;;;2.88;;
22060;SDS011;11194;48.092;-1.382;2023-04-24T10:37:42;7.72;;;3.15;;
22060;SDS011;11194;48.092;-1.382;2023-04-24T10:40:09;7.28;;;3.10;;
22060;SDS011;11194;48.092;-1.382;2023-04-24T10:42:39;5.80;;;3.20;;
22060;SDS011;11194;48.092;-1.382;2023-04-24T10:45:18;9.68;;;3.75;;
22060;SDS011;11194;48.092;-1.382;2023-04-24T10:48:07;5.85;;;3.45;;
22060;SDS011;11194;48.092;-1.382;2023-04-24T10:50:50;7.95;;;3.45;;
22060;SDS011;11194;48.092;-1.382;2023-04-24T10:53:21;4.38;;;2.33;;
22060;SDS011;11194;48.092;-1.382;2023-04-24T10:55:51;8.20;;;3.08;;
22060;SDS011;11194;48.092;-1.382;2023-04-24T10:58:24;8.52;;;3.38;;
22060;SDS011;11194;48.092;-1.382;2023-04-24T11:00:57;7.40;;;3.20;;
22060;SDS011;11194;48.092;-1.382;2023-04-24T11:03:24;9.85;;;3.35;;
22060;SDS011;11194;48.092;-1.382;2023-04-24T11:08:27;6.88;;;3.15;;
22060;SDS011;11194;48.092;-1.382;2023-04-24T11:11:00;7.97;;;3.30;;
22060;SDS011;11194;48.092;-1.382;2023-04-24T11:13:28;6.60;;;3.08;;
22060;SDS011;11194;48.092;-1.382;2023-04-24T11:18:52;8.18;;;3.33;;
22060;SDS011;11194;48.092;-1.382;2023-04-24T11:21:19;4.63;;;2.72;;
22060;SDS011;11194;48.092;-1.382;2023-04-24T11:23:46;5.07;;;3.22;;
22060;SDS011;11194;48.092;-1.382;2023-04-24T11:28:45;7.22;;;3.38;;
22060;SDS011;11194;48.092;-1.382;2023-04-24T11:33:56;9.85;;;3.30;;
22060;SDS011;11194;48.092;-1.382;2023-04-24T11:36:22;6.28;;;2.58;;
22060;SDS011;11194;48.092;-1.382;2023-04-24T11:38:49;5.30;;;2.80;;
22060;SDS011;11194;48.092;-1.382;2023-04-24T11:41:15;6.95;;;2.80;;
22060;SDS011;11194;48.092;-1.382;2023-04-24T11:43:41;4.93;;;2.58;;
22060;SDS011;11194;48.092;-1.382;2023-04-24T11:46:07;8.40;;;4.32;;
22060;SDS011;11194;48.092;-1.382;2023-04-24T11:48:36;5.45;;;3.25;;
22060;SDS011;11194;48.092;-1.382;2023-04-24T11:51:05;8.60;;;3.67;;
22060;SDS011;11194;48.092;-1.382;2023-04-24T11:53:31;7.00;;;3.55;;
22060;SDS011;11194;48.092;-1.382;2023-04-24T11:56:02;5.50;;;2.28;;
22060;SDS011;11194;48.092;-1.382;2023-04-24T11:58:28;6.78;;;2.50;;
22060;SDS011;11194;48.092;-1.382;2023-04-24T12:00:57;5.45;;;2.53;;
22060;SDS011;11194;48.092;-1.382;2023-04-24T12:03:24;6.30;;;2.72;;
22060;SDS011;11194;48.092;-1.382;2023-04-24T12:05:50;7.25;;;2.40;;
22060;SDS011;11194;48.092;-1.382;2023-04-24T12:08:28;9.57;;;3.38;;
22060;SDS011;11194;48.092;-1.382;2023-04-24T12:10:55;6.43;;;2.83;;
22060;SDS011;11194;48.092;-1.382;2023-04-24T12:13:21;3.40;;;2.58;;
22060;SDS011;11194;48.092;-1.382;2023-04-24T12:15:47;5.68;;;2.50;;
22060;SDS011;11194;48.092;-1.382;2023-04-24T12:18:13;5.65;;;2.63;;
22060;SDS011;11194;48.092;-1.382;2023-04-24T12:20:42;9.38;;;2.78;;
22060;SDS011;11194;48.092;-1.382;2023-04-24T12:23:08;4.57;;;2.67;;
22060;SDS011;11194;48.092;-1.382;2023-04-24T12:25:34;5.00;;;2.97;;
22060;SDS011;11194;48.092;-1.382;2023-04-24T12:30:33;4.32;;;2.47;;
22060;SDS011;11194;48.092;-1.382;2023-04-24T12:33:00;5.68;;;2.50;;
22060;SDS011;11194;48.092;-1.382;2023-04-24T12:35:29;6.15;;;2.33;;
22060;SDS011;11194;48.092;-1.382;2023-04-24T12:38:05;6.72;;;2.50;;
22060;SDS011;11194;48.092;-1.382;2023-04-24T12:40:31;4.15;;;2.38;;
22060;SDS011;11194;48.092;-1.382;2023-04-24T12:42:57;5.00;;;2.10;;
22060;SDS011;11194;48.092;-1.382;2023-04-24T12:45:23;7.20;;;2.60;;
22060;SDS011;11194;48.092;-1.382;2023-04-24T12:47:50;5.18;;;2.30;;
22060;SDS011;11194;48.092;-1.382;2023-04-24T12:50:16;4.55;;;2.35;;
22060;SDS011;11194;48.092;-1.382;2023-04-24T12:52:42;4.47;;;2.15;;
22060;SDS011;11194;48.092;-1.382;2023-04-24T12:55:09;3.28;;;2.20;;
22060;SDS011;11194;48.092;-1.382;2023-04-24T12:57:37;5.80;;;2.05;;
22060;SDS011;11194;48.092;-1.382;2023-04-24T13:00:04;7.13;;;2.63;;
22060;SDS011;11194;48.092;-1.382;2023-04-24T13:02:31;7.75;;;2.53;;
22060;SDS011;11194;48.092;-1.382;2023-04-24T13:05:00;5.68;;;2.30;;
22060;SDS011;11194;48.092;-1.382;2023-04-24T13:07:26;5.93;;;2.10;;
22060;SDS011;11194;48.092;-1.382;2023-04-24T13:09:53;6.80;;;2.22;;
22060;SDS011;11194;48.092;-1.382;2023-04-24T13:12:20;4.35;;;2.30;;
22060;SDS011;11194;48.092;-1.382;2023-04-24T13:14:46;4.75;;;2.20;;
22060;SDS011;11194;48.092;-1.382;2023-04-24T13:17:12;6.40;;;2.35;;
22060;SDS011;11194;48.092;-1.382;2023-04-24T13:19:40;6.50;;;2.50;;
22060;SDS011;11194;48.092;-1.382;2023-04-24T13:22:06;6.10;;;2.13;;
22060;SDS011;11194;48.092;-1.382;2023-04-24T13:24:32;7.40;;;2.22;;
22060;SDS011;11194;48.092;-1.382;2023-04-24T13:26:59;4.28;;;2.38;;
22060;SDS011;11194;48.092;-1.382;2023-04-24T13:29:25;4.05;;;2.10;;
22060;SDS011;11194;48.092;-1.382;2023-04-24T13:31:52;5.10;;;2.60;;
22060;SDS011;11194;48.092;-1.382;2023-04-24T13:34:24;4.97;;;2.22;;
22060;SDS011;11194;48.092;-1.382;2023-04-24T13:36:51;5.47;;;2.60;;
22060;SDS011;11194;48.092;-1.382;2023-04-24T13:39:17;5.10;;;2.30;;
22060;SDS011;11194;48.092;-1.382;2023-04-24T13:41:43;4.13;;;2.22;;
22060;SDS011;11194;48.092;-1.382;2023-04-24T13:44:10;5.80;;;2.28;;
22060;SDS011;11194;48.092;-1.382;2023-04-24T13:46:36;4.85;;;2.38;;
22060;SDS011;11194;48.092;-1.382;2023-04-24T13:49:02;4.97;;;2.38;;
22060;SDS011;11194;48.092;-1.382;2023-04-24T13:51:31;6.20;;;2.35;;
22060;SDS011;11194;48.092;-1.382;2023-04-24T13:53:57;4.95;;;2.22;;
22060;SDS011;11194;48.092;-1.382;2023-04-24T13:56:23;7.10;;;3.08;;
22060;SDS011;11194;48.092;-1.382;2023-04-24T13:58:49;6.47;;;2.80;;
22060;SDS011;11194;48.092;-1.382;2023-04-24T14:01:15;5.50;;;2.60;;
22060;SDS011;11194;48.092;-1.382;2023-04-24T14:03:42;8.88;;;4.78;;
22060;SDS011;11194;48.092;-1.382;2023-04-24T14:06:10;9.00;;;3.72;;
22060;SDS011;11194;48.092;-1.382;2023-04-24T14:08:36;4.68;;;2.28;;
22060;SDS011;11194;48.092;-1.382;2023-04-24T14:11:03;3.42;;;2.10;;
22060;SDS011;11194;48.092;-1.382;2023-04-24T14:13:29;2.47;;;2.10;;
22060;SDS011;11194;48.092;-1.382;2023-04-24T14:15:55;8.02;;;2.47;;
22060;SDS011;11194;48.092;-1.382;2023-04-24T14:18:21;3.53;;;2.13;;
22060;SDS011;11194;48.092;-1.382;2023-04-24T14:20:47;6.35;;;2.45;;
22060;SDS011;11194;48.092;-1.382;2023-04-24T14:23:13;5.38;;;2.72;;
22060;SDS011;11194;48.092;-1.382;2023-04-24T14:25:40;4.28;;;2.22;;
22060;SDS011;11194;48.092;-1.382;2023-04-24T14:28:06;8.07;;;3.10;;
22060;SDS011;11194;48.092;-1.382;2023-04-24T14:30:32;5.22;;;2.20;;
22060;SDS011;11194;48.092;-1.382;2023-04-24T14:32:58;6.40;;;3.55;;
22060;SDS011;11194;48.092;-1.382;2023-04-24T14:35:24;7.47;;;4.32;;
22060;SDS011;11194;48.092;-1.382;2023-04-24T14:37:50;4.18;;;2.33;;
22060;SDS011;11194;48.092;-1.382;2023-04-24T14:40:16;4.47;;;2.17;;
22060;SDS011;11194;48.092;-1.382;2023-04-24T14:42:42;4.28;;;2.60;;
22060;SDS011;11194;48.092;-1.382;2023-04-24T14:45:08;4.60;;;2.10;;
22060;SDS011;11194;48.092;-1.382;2023-04-24T14:47:36;6.45;;;2.53;;
22060;SDS011;11194;48.092;-1.382;2023-04-24T14:50:02;4.78;;;2.30;;
22060;SDS011;11194;48.092;-1.382;2023-04-24T14:52:28;5.05;;;2.80;;
22060;SDS011;11194;48.092;-1.382;2023-04-24T14:54:54;8.95;;;3.90;;
22060;SDS011;11194;48.092;-1.382;2023-04-24T14:57:21;9.65;;;3.75;;
22060;SDS011;11194;48.092;-1.382;2023-04-24T14:59:47;4.68;;;2.78;;
22060;SDS011;11194;48.092;-1.382;2023-04-24T15:02:13;6.68;;;3.22;;
22060;SDS011;11194;48.092;-1.382;2023-04-24T15:04:39;10.52;;;4.75;;
22060;SDS011;11194;48.092;-1.382;2023-04-24T15:07:05;10.95;;;6.72;;
22060;SDS011;11194;48.092;-1.382;2023-04-24T15:09:31;8.20;;;7.50;;
22060;SDS011;11194;48.092;-1.382;2023-04-24T15:11:57;10.57;;;8.70;;
22060;SDS011;11194;48.092;-1.382;2023-04-24T15:14:23;8.48;;;7.55;;
22060;SDS011;11194;48.092;-1.382;2023-04-24T15:16:50;9.77;;;7.05;;
22060;SDS011;11194;48.092;-1.382;2023-04-24T15:19:16;10.05;;;6.93;;
22060;SDS011;11194;48.092;-1.382;2023-04-24T15:21:42;8.30;;;6.57;;
22060;SDS011;11194;48.092;-1.382;2023-04-24T15:24:09;9.30;;;6.40;;
22060;SDS011;11194;48.092;-1.382;2023-04-24T15:26:35;7.25;;;6.00;;
22060;SDS011;11194;48.092;-1.382;2023-04-24T15:29:01;11.48;;;5.72;;
22060;SDS011;11194;48.092;-1.382;2023-04-24T15:31:27;12.30;;;5.95;;
22060;SDS011;11194;48.092;-1.382;2023-04-24T15:33:53;9.35;;;4.93;;
22060;SDS011;11194;48.092;-1.382;2023-04-24T15:36:19;10.05;;;5.85;;
22060;SDS011;11194;48.092;-1.382;2023-04-24T15:38:46;13.40;;;6.43;;
22060;SDS011;11194;48.092;-1.382;2023-04-24T15:41:12;11.95;;;6.93;;
22060;SDS011;11194;48.092;-1.382;2023-04-24T15:43:38;7.88;;;5.07;;
22060;SDS011;11194;48.092;-1.382;2023-04-24T15:46:06;11.77;;;6.15;;
22060;SDS011;11194;48.092;-1.382;2023-04-24T15:48:32;10.93;;;5.82;;
22060;SDS011;11194;48.092;-1.382;2023-04-24T15:50:59;9.65;;;5.30;;
22060;SDS011;11194;48.092;-1.382;2023-04-24T15:53:25;7.45;;;4.70;;
22060;SDS011;11194;48.092;-1.382;2023-04-24T15:55:52;5.85;;;4.47;;
22060;SDS011;11194;48.092;-1.382;2023-04-24T15:58:19;6.40;;;3.30;;
22060;SDS011;11194;48.092;-1.382;2023-04-24T16:00:46;5.55;;;3.40;;
22060;SDS011;11194;48.092;-1.382;2023-04-24T16:03:12;8.43;;;3.47;;
22060;SDS011;11194;48.092;-1.382;2023-04-24T16:05:38;5.50;;;3.00;;
22060;SDS011;11194;48.092;-1.382;2023-04-24T16:08:04;6.35;;;2.70;;
22060;SDS011;11194;48.092;-1.382;2023-04-24T16:10:31;7.80;;;3.13;;
22060;SDS011;11194;48.092;-1.382;2023-04-24T16:12:57;4.97;;;2.78;;
22060;SDS011;11194;48.092;-1.382;2023-04-24T16:15:28;6.03;;;3.10;;
22060;SDS011;11194;48.092;-1.382;2023-04-24T16:17:54;4.53;;;2.70;;
22060;SDS011;11194;48.092;-1.382;2023-04-24T16:20:20;5.78;;;2.50;;
22060;SDS011;11194;48.092;-1.382;2023-04-24T16:22:47;3.55;;;2.30;;
22060;SDS011;11194;48.092;-1.382;2023-04-24T16:25:13;4.13;;;2.60;;
22060;SDS011;11194;48.092;-1.382;2023-04-24T16:27:39;6.40;;;3.10;;
22060;SDS011;11194;48.092;-1.382;2023-04-24T16:30:05;5.82;;;3.03;;
22060;SDS011;11194;48.092;-1.382;2023-04-24T16:32:31;18.80;;;8.98;;
22060;SDS011;11194;48.092;-1.382;2023-04-24T16:34:58;6.75;;;3.58;;
22060;SDS011;11194;48.092;-1.382;2023-04-24T16:37:24;5.90;;;2.80;;
22060;SDS011;11194;48.092;-1.382;2023-04-24T16:39:50;5.78;;;3.15;;
22060;SDS011;11194;48.092;-1.382;2023-04-24T16:42:18;7.22;;;3.10;;
22060;SDS011;11194;48.092;-1.382;2023-04-24T16:44:45;6.90;;;3.20;;
22060;SDS011;11194;48.092;-1.382;2023-04-24T16:47:11;5.95;;;3.50;;
22060;SDS011;11194;48.092;-1.382;2023-04-24T16:49:39;6.53;;;3.20;;
22060;SDS011;11194;48.092;-1.382;2023-04-24T16:52:05;4.75;;;2.60;;
22060;SDS011;11194;48.092;-1.382;2023-04-24T16:54:32;4.63;;;2.80;;
22060;SDS011;11194;48.092;-1.382;2023-04-24T16:56:59;8.60;;;3.40;;
22060;SDS011;11194;48.092;-1.382;2023-04-24T16:59:26;6.85;;;2.72;;
22060;SDS011;11194;48.092;-1.382;2023-04-24T17:01:57;3.80;;;2.38;;
22060;SDS011;11194;48.092;-1.382;2023-04-24T17:04:23;3.95;;;2.55;;
22060;SDS011;11194;48.092;-1.382;2023-04-24T17:06:49;4.45;;;3.28;;
22060;SDS011;11194;48.092;-1.382;2023-04-24T17:09:15;6.63;;;3.50;;
22060;SDS011;11194;48.092;-1.382;2023-04-24T17:11:41;6.28;;;3.38;;
22060;SDS011;11194;48.092;-1.382;2023-04-24T17:14:08;6.30;;;3.92;;
22060;SDS011;11194;48.092;-1.382;2023-04-24T17:16:35;5.78;;;3.90;;
22060;SDS011;11194;48.092;-1.382;2023-04-24T17:19:01;6.65;;;3.75;;